Latest Weather Observations for Stawell

IDV60801

Issued at 9:05 pm EST Thursday 28 August 2014 (issued every 30 minutes, with the page automatically refreshed every 10 minutes)

About weather observations | Map of weather stations | Latest weather observations for VIC | Other Formats
Station Details ID: 079105 Name: STAWELL AERODROME Lat: -37.07 Lon: 142.74 Height: 235.36 m
Data from the previous 72 hours. | See also: Recent months at Stawell
Date/Time
EST
Temp
°C
App
Temp
°C
Dew
Point
Rel
Hum
%
Delta-T
°C
Wind Press
QNH
hPa
Press
MSL
hPa
Rain
since 9 am
mm
Dir
 
Spd
km/h
Gust
km/h
Spd
kts
Gust
kts
28/09:00pm 10.6 9.1 6.7 77 1.8 ESE 4 7 2 4 1027.6 1028.8 0.0
28/08:30pm 12.6 10.6 7.3 70 2.6 ESE 7 11 4 6 1027.4 - 0.0
28/08:00pm 14.4 12.5 7.5 63 3.4 SE 7 9 4 5 1027.2 - 0.0
28/07:30pm 12.9 10.0 6.7 66 3.0 SSE 11 15 6 8 1026.8 - 0.0
28/07:00pm 13.5 11.9 6.4 62 3.4 NW 4 13 2 7 1026.5 - 0.0
28/06:30pm 15.4 14.5 6.1 54 4.5 CALM 0 0 0 0 1026.3 - 0.0
28/06:00pm 17.7 16.4 5.9 46 5.8 NNW 2 7 1 4 1026.1 1027.4 0.0
28/05:30pm 19.1 16.7 5.2 40 6.8 NW 7 11 4 6 1026.0 - 0.0
28/05:00pm 19.7 16.9 5.0 38 7.2 NW 9 11 5 6 1025.8 - 0.0
28/04:30pm 19.9 17.2 5.5 39 7.2 NNW 9 15 5 8 1025.6 - 0.0
28/04:00pm 20.1 17.4 5.4 38 7.3 WNW 9 15 5 8 1025.7 - 0.0
28/03:30pm 20.2 17.2 6.2 40 7.1 NNW 11 17 6 9 1025.7 - 0.0
28/03:00pm 20.1 17.2 6.4 41 6.9 NW 11 15 6 8 1025.8 1027.1 0.0
28/02:30pm 19.8 17.1 7.2 44 6.5 NW 11 19 6 10 1025.9 - 0.0
28/02:00pm 19.4 16.7 7.2 45 6.3 N 11 17 6 9 1026.1 - 0.0
28/01:30pm 19.3 16.9 6.8 44 6.4 WNW 9 19 5 10 1026.4 - 0.0
28/01:00pm 18.7 16.1 6.2 44 6.3 WNW 9 13 5 7 1026.8 - 0.0
28/12:30pm 18.0 15.9 6.8 48 5.6 NW 7 13 4 7 1027.4 - 0.0
28/12:00pm 17.6 14.7 6.5 48 5.5 NW 11 17 6 9 1027.7 1028.9 0.0
28/11:30am 17.2 14.9 7.3 52 5.0 NNW 9 15 5 8 1028.0 - 0.0
28/11:00am 16.3 13.6 7.5 56 4.4 NNW 11 15 6 8 1028.2 - 0.0
28/10:30am 15.4 13.0 6.9 57 4.2 NNW 9 15 5 8 1028.4 - 0.0
28/10:00am 15.1 14.2 7.6 61 3.8 ENE 2 7 1 4 1028.5 - 0.0
28/09:30am 13.3 12.9 8.2 71 2.6 CALM 0 0 0 0 1028.5 - 0.0
28/09:00am 11.4 10.9 7.9 79 1.7 CALM 0 0 0 0 1028.5 1029.7 0.0
28/08:30am 9.3 8.8 7.7 90 0.8 CALM 0 0 0 0 1028.4 - 0.0
28/08:00am 6.8 5.9 6.2 96 0.3 CALM 0 0 0 0 1028.3 - 0.0
28/07:30am 4.9 3.7 4.8 99 0.0 CALM 0 4 0 2 1028.0 - 0.0
28/07:00am 2.8 0.8 2.5 98 0.1 ESE 2 6 1 3 1027.7 - 0.0
28/06:30am 3.9 1.4 3.6 98 0.1 ESE 6 7 3 4 1027.5 - 0.0
28/06:00am 4.2 1.7 3.9 98 0.1 ESE 6 7 3 4 1027.4 1028.6 0.0
28/05:30am 4.0 1.3 3.7 98 0.1 ESE 7 9 4 5 1027.2 - 0.0
28/05:00am 4.1 2.7 3.8 98 0.1 CALM 0 6 0 3 1026.9 - 0.0
28/04:30am 4.5 2.8 4.2 98 0.1 ESE 2 7 1 4 1026.8 - 0.0
28/04:00am 4.4 3.1 4.0 97 0.2 CALM 0 0 0 0 1026.6 - 0.0
28/03:30am 4.3 2.9 3.7 96 0.3 CALM 0 0 0 0 1026.7 - 0.0
28/03:00am 4.9 3.6 4.3 96 0.3 CALM 0 0 0 0 1026.7 1028.0 0.0
28/02:30am 5.0 3.7 4.3 95 0.3 CALM 0 0 0 0 1027.1 - 0.0
28/02:00am 5.5 4.4 4.9 96 0.3 CALM 0 0 0 0 1027.3 - 0.0
28/01:30am 5.4 4.2 4.7 95 0.3 CALM 0 0 0 0 1027.4 - 0.0
28/01:00am 5.5 4.3 4.5 93 0.4 CALM 0 0 0 0 1027.5 - 0.0
28/12:30am 5.9 4.7 4.7 92 0.5 CALM 0 0 0 0 1027.4 - 0.0
28/12:00am 6.6 5.5 5.2 91 0.6 CALM 0 0 0 0 1027.6 1028.8 0.0
 
Date/Time
EST
Temp
°C
App
Temp
°C
Dew
Point
Rel
Hum
%
Delta-T
°C
Wind Press
QNH
hPa
Press
MSL
hPa
Rain
since 9 am
mm
Dir
 
Spd
km/h
Gust
km/h
Spd
kts
Gust
kts
27/11:30pm 6.4 4.9 5.0 91 0.6 ESE 2 6 1 3 1027.6 - 0.0
27/11:00pm 7.5 6.5 5.8 89 0.8 CALM 0 0 0 0 1027.5 - 0.0
27/10:30pm 8.0 7.1 6.0 87 0.9 CALM 0 0 0 0 1027.6 - 0.0
27/10:00pm 8.5 7.6 6.1 85 1.1 CALM 0 0 0 0 1027.5 - 0.0
27/09:30pm 9.1 8.4 6.9 86 1.0 CALM 0 6 0 3 1027.4 - 0.0
27/09:00pm 9.9 9.3 7.2 83 1.3 CALM 0 0 0 0 1027.3 1028.5 0.0
27/08:30pm 10.5 9.9 7.2 80 1.6 CALM 0 0 0 0 1027.2 - 0.0
27/08:00pm 12.3 10.6 7.4 72 2.4 ESE 6 7 3 4 1026.9 - 0.0
27/07:30pm 13.9 11.8 6.7 62 3.5 SE 7 9 4 5 1026.6 - 0.0
27/07:00pm 13.9 11.9 7.2 64 3.3 SE 7 9 4 5 1026.4 - 0.0
27/06:30pm 15.4 13.1 7.4 59 4.0 SE 9 13 5 7 1026.1 - 0.0
27/06:00pm 16.3 14.0 7.5 56 4.4 SSE 9 11 5 6 1026.0 1027.3 0.0
27/05:30pm 17.7 15.3 6.9 49 5.4 SE 9 11 5 6 1025.7 - 0.0
27/05:00pm 18.5 16.3 6.4 45 6.1 SE 7 13 4 7 1025.5 - 0.0
27/04:30pm 19.0 16.1 4.7 39 7.0 S 9 15 5 8 1025.3 - 0.0
27/04:00pm 19.1 17.0 5.6 41 6.7 SSE 6 9 3 5 1025.4 - 0.0
27/03:30pm 19.3 16.5 5.0 39 7.0 WSW 9 13 5 7 1025.4 - 0.0
27/03:00pm 19.4 17.3 6.5 43 6.5 SW 7 11 4 6 1025.4 1026.6 0.0
27/02:30pm 19.6 17.6 7.0 44 6.4 SE 7 13 4 7 1025.4 - 0.0
27/02:00pm 18.6 16.0 6.1 44 6.2 SSW 9 17 5 9 1025.6 - 0.0
27/01:30pm 18.7 15.7 5.9 43 6.4 NNW 11 17 6 9 1025.8 - 0.0
27/01:00pm 18.5 15.9 6.0 44 6.2 NW 9 17 5 9 1026.0 - 0.0
27/12:30pm 18.0 16.0 6.2 46 5.9 WNW 6 15 3 8 1026.5 - 0.0
27/12:00pm 17.2 14.7 4.9 44 5.9 NW 7 13 4 7 1026.9 1028.2 0.0
27/11:30am 16.6 14.2 7.0 53 4.8 NW 9 13 5 7 1027.3 - 0.0
27/11:00am 15.9 13.8 8.4 61 3.9 NW 9 11 5 6 1027.5 - 0.0
27/10:30am 15.2 13.4 9.3 68 3.1 NW 9 11 5 6 1027.6 - 0.0
27/10:00am 14.3 14.1 9.1 71 2.7 CALM 0 0 0 0 1027.6 - 0.0
27/09:30am 13.0 12.9 9.3 78 1.9 CALM 0 0 0 0 1027.6 - 0.0
27/09:00am 10.6 10.4 9.0 90 0.8 CALM 0 0 0 0 1027.3 1028.5 0.0
27/08:30am 8.2 6.6 7.8 97 0.2 S 6 6 3 3 1026.9 - 0.0
27/08:00am 6.4 4.8 6.3 99 0.0 SSW 4 6 2 3 1026.7 - 0.0
27/07:30am 3.5 0.7 3.4 99 0.0 SSW 7 11 4 6 1026.4 - 0.0
27/07:00am 3.1 -0.1 3.0 99 0.0 E 9 11 5 6 1025.9 - 0.0
27/06:30am 3.4 2.0 3.3 99 0.0 CALM 0 0 0 0 1025.7 - 0.0
27/06:00am 3.5 2.1 3.4 99 0.0 CALM 0 6 0 3 1025.6 1026.8 0.0
27/05:30am 4.1 1.5 4.0 99 0.0 ESE 7 9 4 5 1025.4 - 0.0
27/05:00am 3.5 1.3 3.4 99 0.0 ESE 4 7 2 4 1025.3 - 0.0
27/04:30am 3.9 1.8 3.8 99 0.0 ESE 4 6 2 3 1025.3 - 0.0
27/04:00am 4.9 3.7 4.8 99 0.0 CALM 0 0 0 0 1025.3 - 0.0
27/03:30am 4.8 1.9 4.7 99 0.0 ESE 9 9 5 5 1025.2 - 0.0
27/03:00am 4.5 1.6 4.4 99 0.0 ESE 9 11 5 6 1025.3 1026.5 0.0
27/02:30am 4.9 2.4 4.8 99 0.0 ESE 7 9 4 5 1025.5 - 0.0
27/02:00am 4.3 1.7 4.2 99 0.0 W 7 9 4 5 1025.6 - 0.0
27/01:30am 4.6 3.4 4.5 99 0.0 CALM 0 0 0 0 1025.5 - 0.0
27/01:00am 4.5 3.2 4.2 98 0.1 CALM 0 0 0 0 1025.5 - 0.0
27/12:30am 5.4 3.9 5.1 98 0.1 W 2 6 1 3 1025.4 - 0.0
27/12:00am 5.7 4.7 5.4 98 0.1 CALM 0 0 0 0 1025.4 1026.6 0.0
 
Date/Time
EST
Temp
°C
App
Temp
°C
Dew
Point
Rel
Hum
%
Delta-T
°C
Wind Press
QNH
hPa
Press
MSL
hPa
Rain
since 9 am
mm
Dir
 
Spd
km/h
Gust
km/h
Spd
kts
Gust
kts
26/11:30pm 5.0 3.8 4.6 97 0.2 CALM 0 6 0 3 1025.4 - 0.0
26/11:00pm 5.7 4.6 5.1 96 0.3 CALM 0 0 0 0 1025.5 - 0.0
26/10:30pm 6.6 5.8 6.3 98 0.1 CALM 0 0 0 0 1025.4 - 0.0
26/10:00pm 6.6 5.7 6.0 96 0.3 CALM 0 0 0 0 1025.5 - 0.0
26/09:30pm 6.5 4.4 5.8 95 0.3 S 6 7 3 4 1025.4 - 0.0
26/09:00pm 7.4 5.5 6.5 94 0.4 E 6 7 3 4 1025.4 1026.6 0.0
26/08:30pm 8.4 6.6 7.2 92 0.6 S 6 11 3 6 1025.5 - 0.0
26/08:00pm 8.3 7.5 6.6 89 0.8 CALM 0 0 0 0 1025.3 - 0.0
26/07:30pm 10.0 8.7 7.6 85 1.2 SSW 4 7 2 4 1025.1 - 0.0
26/07:00pm 10.8 8.6 8.0 83 1.4 SSW 9 11 5 6 1024.9 - 0.0
26/06:30pm 11.9 9.7 8.0 77 1.9 S 9 11 5 6 1024.6 - 0.0
26/06:00pm 13.3 11.7 8.2 71 2.5 SSE 6 7 3 4 1024.6 1025.8 0.0
26/05:30pm 15.3 13.5 7.3 59 4.0 SE 6 9 3 5 1024.4 - 0.0
26/05:00pm 15.6 13.1 6.6 55 4.4 ESE 9 13 5 7 1024.2 - 0.0
26/04:30pm 16.0 13.0 7.5 57 4.3 ESE 13 17 7 9 1024.1 - 0.0
26/04:00pm 15.9 12.9 7.9 59 4.1 ESE 13 19 7 10 1024.1 - 0.0
26/03:30pm 16.3 13.0 8.0 58 4.2 ESE 15 22 8 12 1024.1 - 0.0
26/03:00pm 16.2 13.9 7.4 56 4.4 SE 9 15 5 8 1024.2 1025.4 0.0
26/02:30pm 15.8 13.2 7.8 59 4.1 S 11 17 6 9 1024.5 - 0.0
26/02:00pm 15.9 13.4 8.2 60 3.9 S 11 17 6 9 1024.6 - 0.0
26/01:30pm 15.1 12.1 7.9 62 3.6 S 13 17 7 9 1024.9 - 0.0
26/01:00pm 14.7 11.7 7.7 63 3.5 S 13 17 7 9 1025.4 - 0.0
26/12:30pm 14.5 11.8 7.3 62 3.6 SSE 11 17 6 9 1025.8 - 0.0
26/12:00pm 14.4 12.3 6.7 60 3.8 S 7 13 4 7 1026.3 1027.6 0.0
26/11:30am 13.7 11.4 7.5 66 3.1 SSE 9 15 5 8 1026.6 - 0.0
26/11:00am 13.0 10.2 8.5 74 2.3 SSW 13 20 7 11 1026.9 - 0.0
26/10:30am 12.7 9.5 8.4 75 2.2 S 15 19 8 10 1027.1 - 0.0
26/10:00am 11.5 8.5 7.8 78 1.8 S 13 17 7 9 1027.3 - 0.0
26/09:30am 10.9 8.1 8.5 85 1.2 S 13 19 7 10 1027.2 - 0.0
26/09:00am 9.8 6.9 8.1 89 0.8 SSW 13 19 7 10 1027.2 1028.4 0.0
26/08:30am 9.0 6.5 8.2 95 0.4 S 11 17 6 9 1027.1 - 0.0
26/08:00am 8.0 5.8 7.9 99 0.0 SSW 9 13 5 7 1026.9 - 0.0
26/07:30am 7.5 4.8 7.4 99 0.0 S 11 15 6 8 1026.7 - 0.0
26/07:00am 7.0 4.6 6.9 99 0.0 S 9 13 5 7 1026.5 - 0.0
26/06:30am 6.8 3.9 6.7 99 0.0 S 11 15 6 8 1026.1 - 0.0
26/06:00am 6.2 3.6 6.1 99 0.0 S 9 13 5 7 1025.9 1027.2 0.0
26/05:30am 5.9 3.2 5.8 99 0.0 SW 9 11 5 6 1025.8 - 0.0
26/05:00am 6.1 3.1 6.0 99 0.0 SSW 11 15 6 8 1025.7 - 0.0
26/04:30am 6.0 3.7 5.9 99 0.0 SW 7 11 4 6 1025.6 - 0.0
26/04:00am 6.3 3.7 6.0 98 0.1 SSW 9 13 5 7 1025.7 - 0.0
26/03:30am 6.5 4.3 6.1 97 0.2 S 7 13 4 7 1025.8 - 0.0
26/03:00am 6.7 5.0 5.8 94 0.4 SW 4 9 2 5 1026.2 1027.5 0.0
26/02:30am 6.8 4.2 6.1 95 0.3 SSW 9 15 5 8 1026.4 - 0.0
26/02:00am 8.9 5.7 6.7 86 1.0 SSE 13 22 7 12 1026.6 - 0.0
26/01:30am 7.2 4.7 6.5 95 0.3 S 9 17 5 9 1026.8 - 0.0
26/01:00am 8.1 5.3 6.9 92 0.6 S 11 22 6 12 1026.8 - 0.0
26/12:30am 7.2 5.1 6.8 97 0.2 S 7 13 4 7 1027.1 - 0.0
26/12:00am 7.1 4.6 6.5 96 0.3 SW 9 15 5 8 1027.2 1028.4 0.0
 
Date/Time
EST
Temp
°C
App
Temp
°C
Dew
Point
Rel
Hum
%
Delta-T
°C
Wind Press
QNH
hPa
Press
MSL
hPa
Rain
since 9 am
mm
Dir
 
Spd
km/h
Gust
km/h
Spd
kts
Gust
kts
25/11:30pm 7.5 4.6 6.3 92 0.6 SSW 11 15 6 8 1027.2 - 0.0
25/11:00pm 7.9 4.9 5.9 87 0.9 S 11 19 6 10 1027.4 - 0.0
25/10:30pm 8.8 5.2 6.9 88 0.9 SSE 15 20 8 11 1027.4 - 0.0
25/10:00pm 9.3 5.0 6.9 85 1.1 SSE 19 26 10 14 1027.5 - 0.0
25/09:30pm 9.8 6.3 7.1 83 1.3 SE 15 26 8 14 1027.5 - 0.0

Other Formats:

Comma delimited format used in spreadsheet applications
http://www.bom.gov.au/fwo/IDV60801/IDV60801.94836.axf

JavaScript Object Notation format (JSON) in row-major order
http://www.bom.gov.au/fwo/IDV60801/IDV60801.94836.json